Aeroporto :
LOGIN :

Iscrizione | Disclaimer

   EN    FR    IT 

 










Sommario :    VFR   VFR Marginale   IFR   IFR Intensivo   IFR Molto Intensivo
Visibilità : 
Base nubi : 
>= 8 km
>= 3000ft
5 / 8 km
1000 / 3000 ft
1500m / 5 km
500 / 1000 ft
800 / 1500m
200 / 500 ft
< 800m
< 200 ft
Simboli :   Temporali  Nebbia  Neve Forte  Precipitazioni Forti  Vento > 20 kt
SIGMETs :   Varie  Temporali  Ghiacco  Turbolenza  Onda orograficha  Ceneri Vulcaniche






- Altitudine del aeroporto : 188 ft
- Codice IATA : ORB


ESOE - Örebro

ULTIMO METAR :
  • 140620Z 05004KT 010V090 0700 R01/P2000N R19/P2000D FG VV002 02/01 Q1005

METARs OBSOLETI :
  • 140550Z 04007KT 1800 BR VV002 02/01 Q1005
  • 140520Z 05004KT 1600 BR VV003 02/01 Q1005
  • 140450Z 05004KT 3400 BR VV002 02/01 Q1005
  • 140420Z AUTO 05006KT 2400 BKN002/// 02/01 Q1004
  • 140350Z AUTO 05005KT 1200 R01/P2000N R19/P2000N VV002 02/01 Q1004

TAF TAF ESOE
Valido dal 14 a 06 ore il 14 a 15 ore UTC


140530Z 1406/1415 05004KT 2000 BR BKN002
PROB40 1406/1410 5000 BKN005
BECMG 1410/1412 7000 BKN007
PROB40 1412/1415 4000 BR SCT007 BKN013



MetMap, La meteo Aeronautica in un colpo d'occhio ! - Copyright ORBIFLY Dicembre 2007 - Disclaimer

ORBIFLY MET'MAP TEAM :

Programmazione e sviluppo : Alexandra Zaïnal
Concezione e sviluppo : Baudouin d'Aumeries
Co-Programmazione e sviluppo : Marc-Olivier Méhu
Supporto tecnico e logistico : Manuel Goepfert
Aiuto per la traduzione : Arnaldo La Scala

Contatto : metmap@orbifly.com




FONTI E CREDITI :

   NOAA